createdAt,value
2022-10-19T00:02:51.141Z,64.82
2022-10-19T00:05:53.013Z,65.33
2022-10-19T00:09:15.082Z,65.78
2022-10-19T00:12:23.326Z,66.24
2022-10-19T00:15:31.680Z,66.06
2022-10-19T00:18:40.132Z,66.56
2022-10-19T00:22:02.163Z,66.76
2022-10-19T00:25:17.065Z,66.89
2022-10-19T00:28:18.847Z,67.32
2022-10-19T00:31:34.100Z,67.00
2022-10-19T00:34:42.859Z,68.34
2022-10-19T00:37:51.053Z,67.68
2022-10-19T00:40:59.889Z,67.25
2022-10-19T00:44:54.064Z,67.67
2022-10-19T00:48:09.075Z,68.31
2022-10-19T00:51:11.384Z,68.28
2022-10-19T00:54:27.098Z,68.90
2022-10-19T00:57:38.090Z,69.02
2022-10-19T01:00:47.149Z,68.72
2022-10-19T01:03:55.035Z,68.88
2022-10-19T01:07:06.423Z,69.74
2022-10-19T01:10:21.096Z,69.92
2022-10-19T01:13:49.094Z,70.78
2022-10-19T01:17:17.592Z,71.88
2022-10-19T01:20:57.102Z,73.86
2022-10-19T01:24:30.236Z,76.05
2022-10-19T01:28:17.092Z,77.23
2022-10-19T01:31:47.128Z,77.33
2022-10-19T01:35:16.943Z,77.37
2022-10-19T01:38:41.172Z,76.93
2022-10-19T01:42:02.760Z,75.60
2022-10-19T01:45:24.121Z,75.20
2022-10-19T01:48:37.764Z,75.75
2022-10-19T01:51:52.166Z,75.29
2022-10-19T01:55:03.415Z,73.44
2022-10-19T01:58:16.083Z,73.18
2022-10-19T02:01:28.444Z,73.19
2022-10-19T02:04:38.075Z,74.13
2022-10-19T02:07:58.115Z,74.79
2022-10-19T02:11:01.576Z,74.53
2022-10-19T02:14:20.172Z,74.16
2022-10-19T02:17:26.964Z,74.11
2022-10-19T02:20:49.133Z,73.39
2022-10-19T02:23:57.130Z,73.45
2022-10-19T02:27:15.112Z,73.40
2022-10-19T02:30:30.116Z,73.33
2022-10-19T02:33:38.169Z,73.04
2022-10-19T02:36:53.231Z,73.27
2022-10-19T02:39:55.491Z,73.58
2022-10-19T02:43:16.182Z,73.73
2022-10-19T02:50:00.132Z,72.62
2022-10-19T02:53:08.175Z,72.65
2022-10-19T02:56:16.864Z,72.61
2022-10-19T02:59:32.171Z,72.23
2022-10-19T03:02:34.090Z,72.13
2022-10-19T03:05:50.136Z,71.92
2022-10-19T03:09:01.160Z,71.79
2022-10-19T03:12:10.990Z,71.38
2022-10-19T03:15:24.140Z,70.31
2022-10-19T03:18:32.712Z,70.09
2022-10-19T03:21:48.226Z,69.95
2022-10-19T03:24:56.666Z,70.07
2022-10-19T03:28:05.131Z,70.04
2022-10-19T03:31:13.738Z,68.98
2022-10-19T03:34:22.155Z,67.81
2022-10-19T03:37:37.413Z,66.24
2022-10-19T03:40:47.175Z,65.11
2022-10-19T03:44:03.435Z,64.67
2022-10-19T03:47:12.242Z,63.91
2022-10-19T03:50:22.266Z,64.17
2022-10-19T03:53:32.487Z,64.09
2022-10-19T03:56:42.355Z,63.93
2022-10-19T03:59:51.292Z,63.88
2022-10-19T04:03:06.217Z,64.07
2022-10-19T04:06:22.159Z,64.15
2022-10-19T04:09:37.235Z,64.25
2022-10-19T04:12:38.985Z,64.10
2022-10-19T04:15:54.184Z,64.92
2022-10-19T04:18:57.201Z,65.12
2022-10-19T04:22:19.245Z,64.77
2022-10-19T04:25:21.011Z,64.58
2022-10-19T04:28:36.266Z,64.67
2022-10-19T04:31:39.138Z,65.60
2022-10-19T04:34:54.190Z,66.07
2022-10-19T04:38:02.186Z,66.37
2022-10-19T04:41:13.847Z,66.54
2022-10-19T04:47:42.199Z,67.81
2022-10-19T04:50:54.806Z,68.23
2022-10-19T04:54:03.203Z,68.97
2022-10-19T04:57:18.256Z,68.67
2022-10-19T05:00:20.683Z,69.37
2022-10-19T05:03:35.215Z,69.57
2022-10-19T05:06:37.356Z,70.00
2022-10-19T05:09:52.192Z,70.26
2022-10-19T05:12:54.224Z,69.94
2022-10-19T05:16:12.220Z,70.29
2022-10-19T05:19:27.300Z,71.14
2022-10-19T05:22:29.311Z,71.33
2022-10-19T05:25:44.219Z,70.67
2022-10-19T05:29:02.462Z,71.47
2022-10-19T05:32:10.789Z,71.50
2022-10-19T05:35:25.249Z,71.76
2022-10-19T05:38:29.409Z,71.35
2022-10-19T05:41:44.268Z,71.85
2022-10-19T05:44:53.183Z,72.20
2022-10-19T05:48:01.349Z,72.36
2022-10-19T05:51:12.247Z,72.71
2022-10-19T05:54:23.754Z,72.99
2022-10-19T05:57:41.305Z,72.76
2022-10-19T06:00:52.770Z,72.59
2022-10-19T06:04:09.916Z,72.58
2022-10-19T06:07:11.729Z,72.56
2022-10-19T06:10:32.238Z,72.99
2022-10-19T06:13:34.788Z,73.23
2022-10-19T06:16:50.290Z,68.96
2022-10-19T06:19:58.920Z,68.83
2022-10-19T06:23:20.247Z,65.44
2022-10-19T06:26:23.003Z,65.36
2022-10-19T06:29:37.271Z,64.25
2022-10-19T06:32:46.320Z,63.40
2022-10-19T06:35:54.888Z,62.66
2022-10-19T06:39:03.292Z,62.75
2022-10-19T06:42:12.069Z,63.88
2022-10-19T06:45:20.290Z,63.81
2022-10-19T06:48:28.835Z,65.72
2022-10-19T06:51:43.338Z,64.88
2022-10-19T06:54:58.368Z,64.99
2022-10-19T06:58:08.060Z,65.00
2022-10-19T07:01:23.404Z,66.03
2022-10-19T07:04:25.196Z,66.29
2022-10-19T07:07:41.335Z,65.67
2022-10-19T07:10:54.439Z,66.38
2022-10-19T07:14:02.292Z,67.13
2022-10-19T07:17:18.280Z,65.07
2022-10-19T07:20:20.536Z,65.27
2022-10-19T07:23:44.368Z,61.45
2022-10-19T07:26:59.302Z,61.40
2022-10-19T07:30:08.577Z,61.58
2022-10-19T07:36:26.299Z,64.01
2022-10-19T07:39:37.075Z,62.80
2022-10-19T07:42:45.340Z,64.10
2022-10-19T07:46:12.330Z,61.98
2022-10-19T07:49:21.144Z,61.44
2022-10-19T07:52:31.828Z,61.54
2022-10-19T07:55:42.930Z,62.06
2022-10-19T07:58:52.323Z,59.95
2022-10-19T08:02:16.765Z,59.38
2022-10-19T08:05:31.378Z,59.21
2022-10-19T08:08:40.352Z,59.00
2022-10-19T08:11:49.088Z,59.00
2022-10-19T08:15:00.222Z,61.10
2022-10-19T08:18:08.920Z,59.51
2022-10-19T08:21:17.442Z,60.99
2022-10-19T08:24:39.436Z,59.42
2022-10-19T08:27:41.443Z,58.29
2022-10-19T08:30:56.364Z,60.28
2022-10-19T08:33:58.878Z,58.67
2022-10-19T08:37:26.126Z,59.42
2022-10-19T08:40:37.731Z,60.82
2022-10-19T08:44:12.359Z,59.82
2022-10-19T08:47:47.358Z,59.16
2022-10-19T08:50:50.508Z,56.81
2022-10-19T08:54:10.390Z,57.61
2022-10-19T08:57:30.606Z,56.12
2022-10-19T09:00:59.392Z,57.88
2022-10-19T09:04:15.542Z,56.95
2022-10-19T09:07:27.696Z,56.01
2022-10-19T09:10:42.442Z,56.15
2022-10-19T09:14:04.837Z,56.38
2022-10-19T09:17:21.359Z,56.72
2022-10-19T09:20:41.520Z,57.59
2022-10-19T09:24:05.363Z,56.67
2022-10-19T09:27:28.390Z,55.51
2022-10-19T09:30:31.555Z,54.18
2022-10-19T09:33:48.387Z,54.47
2022-10-19T09:37:04.471Z,54.25
2022-10-19T09:40:14.512Z,53.61
2022-10-19T09:43:29.358Z,55.67
2022-10-19T09:46:42.003Z,54.47
2022-10-19T09:49:59.555Z,52.75
2022-10-19T09:53:11.395Z,52.33
2022-10-19T09:56:24.856Z,51.53
2022-10-19T09:59:39.417Z,51.75
2022-10-19T10:03:02.375Z,50.87
2022-10-19T10:06:15.238Z,51.02
2022-10-19T10:09:26.448Z,50.26
2022-10-19T10:12:36.383Z,51.76
2022-10-19T10:15:55.412Z,50.49
2022-10-19T10:19:07.968Z,51.30
2022-10-19T10:22:31.510Z,51.47
2022-10-19T10:25:55.483Z,51.28
2022-10-19T10:29:00.665Z,51.98
2022-10-19T10:32:24.454Z,51.28
2022-10-19T10:35:39.459Z,50.47
2022-10-19T10:38:59.663Z,51.02
2022-10-19T10:42:16.695Z,48.78
2022-10-19T10:45:31.172Z,47.56
2022-10-19T10:48:48.518Z,47.15
2022-10-19T10:52:13.452Z,47.48
2022-10-19T10:55:24.412Z,46.43
2022-10-19T10:58:54.405Z,45.40
2022-10-19T11:05:59.412Z,45.55
2022-10-19T11:09:22.462Z,44.63
2022-10-19T11:12:48.503Z,43.62
2022-10-19T11:16:10.439Z,42.63
2022-10-19T11:19:31.488Z,41.15
2022-10-19T11:22:58.867Z,39.84
2022-10-19T11:26:31.583Z,25.27
2022-10-19T11:29:59.447Z,21.98
2022-10-19T11:33:27.685Z,19.65
2022-10-19T11:36:51.053Z,18.75
2022-10-19T11:40:22.656Z,19.38
2022-10-19T11:43:41.545Z,19.55
2022-10-19T11:47:13.976Z,18.29
2022-10-19T11:50:37.467Z,19.64
2022-10-19T11:54:14.697Z,21.74
2022-10-19T11:57:35.685Z,21.97
2022-10-19T12:01:07.502Z,22.55
2022-10-19T12:04:52.001Z,21.50
2022-10-19T12:08:34.998Z,23.31
2022-10-19T12:12:10.556Z,23.90
2022-10-19T12:15:30.787Z,23.36
2022-10-19T12:18:51.522Z,23.13
2022-10-19T12:22:03.662Z,22.35
2022-10-19T12:25:22.568Z,24.08
2022-10-19T12:28:41.512Z,22.78
2022-10-19T12:31:45.670Z,19.93
2022-10-19T12:35:14.664Z,23.14
2022-10-19T12:38:42.298Z,21.86
2022-10-19T12:42:14.764Z,21.57
2022-10-19T12:45:31.114Z,22.62
2022-10-19T12:48:39.491Z,24.13
2022-10-19T12:51:54.675Z,23.89
2022-10-19T12:55:20.192Z,21.05
2022-10-19T12:58:48.884Z,22.93
2022-10-19T13:01:58.693Z,24.44
2022-10-19T13:05:13.552Z,24.54
2022-10-19T13:08:35.619Z,25.56
2022-10-19T13:12:22.437Z,28.22
2022-10-19T13:15:58.511Z,28.13
2022-10-19T13:19:11.638Z,35.60
2022-10-19T13:22:28.271Z,34.21
2022-10-19T13:25:44.534Z,38.35
2022-10-19T13:28:54.447Z,39.50
2022-10-19T13:32:32.885Z,34.49
2022-10-19T13:35:41.140Z,36.93
2022-10-19T13:39:08.571Z,39.74
2022-10-19T13:42:31.749Z,38.91
2022-10-19T13:45:33.696Z,40.37
2022-10-19T13:49:08.649Z,40.54
2022-10-19T13:52:47.596Z,38.10
2022-10-19T13:56:22.580Z,39.99
2022-10-19T13:59:56.548Z,41.45
2022-10-19T14:03:20.039Z,43.50
2022-10-19T14:06:49.663Z,43.02
2022-10-19T14:10:10.619Z,39.49
2022-10-19T14:13:25.535Z,42.11
2022-10-19T14:16:33.555Z,43.68
2022-10-19T14:19:46.107Z,41.18
2022-10-19T14:23:01.639Z,42.87
2022-10-19T14:26:23.547Z,44.90
2022-10-19T14:29:25.991Z,42.69
2022-10-19T14:32:41.584Z,44.64
2022-10-19T14:35:50.696Z,43.09
2022-10-19T14:39:02.565Z,42.96
2022-10-19T14:42:11.196Z,44.62
2022-10-19T14:45:29.590Z,44.03
2022-10-19T14:48:37.583Z,41.26
2022-10-19T14:52:01.687Z,42.32
2022-10-19T14:55:20.610Z,42.82
2022-10-19T14:58:35.609Z,41.05
2022-10-19T15:01:44.635Z,44.59
2022-10-19T15:04:56.955Z,44.41
2022-10-19T15:08:16.879Z,44.43
2022-10-19T15:11:30.319Z,44.17
2022-10-19T15:14:38.588Z,44.56
2022-10-19T15:18:16.489Z,46.70
2022-10-19T15:21:33.556Z,44.28
2022-10-19T15:25:14.622Z,40.25
2022-10-19T15:28:41.931Z,40.85
2022-10-19T15:31:50.462Z,42.17
2022-10-19T15:35:08.626Z,42.74
2022-10-19T15:38:25.676Z,42.78
2022-10-19T15:41:43.686Z,43.55
2022-10-19T15:44:58.995Z,43.86
2022-10-19T15:48:25.384Z,44.98
2022-10-19T15:51:39.670Z,45.42
2022-10-19T15:54:50.095Z,46.04
2022-10-19T15:58:07.899Z,45.39
2022-10-19T16:01:21.071Z,46.00
2022-10-19T16:04:29.620Z,45.87
2022-10-19T16:07:47.669Z,45.75
2022-10-19T16:10:58.617Z,46.23
2022-10-19T16:14:13.875Z,46.64
2022-10-19T16:17:24.208Z,46.16
2022-10-19T16:20:40.663Z,45.70
2022-10-19T16:23:56.016Z,45.15
2022-10-19T16:27:04.666Z,44.66
2022-10-19T16:30:21.695Z,45.37
2022-10-19T16:33:30.630Z,45.91
2022-10-19T16:36:45.631Z,46.10
2022-10-19T16:40:00.683Z,46.85
2022-10-19T16:43:02.760Z,46.93
2022-10-19T16:46:18.644Z,46.95
2022-10-19T16:49:20.755Z,47.19
2022-10-19T16:52:37.964Z,47.43
2022-10-19T16:55:40.960Z,47.37
2022-10-19T16:58:56.712Z,47.37
2022-10-19T17:02:05.572Z,48.11
2022-10-19T17:05:21.675Z,47.54
2022-10-19T17:09:30.235Z,48.02
2022-10-19T17:12:25.137Z,48.02
2022-10-19T17:15:42.924Z,47.72
2022-10-19T17:18:55.811Z,48.08
2022-10-19T17:22:16.927Z,48.51
2022-10-19T17:25:25.855Z,48.72
2022-10-19T17:28:45.655Z,48.59
2022-10-19T17:31:54.769Z,48.72
2022-10-19T17:35:10.871Z,49.11
2022-10-19T17:38:20.360Z,49.09
2022-10-19T17:41:29.676Z,49.51
2022-10-19T17:48:03.711Z,49.70
2022-10-19T17:51:19.490Z,50.13
2022-10-19T17:54:27.754Z,50.17
2022-10-19T17:57:43.703Z,50.71
2022-10-19T18:00:53.627Z,50.77
2022-10-19T18:04:08.675Z,50.67
2022-10-19T18:07:20.756Z,51.14
2022-10-19T18:10:36.720Z,51.51
2022-10-19T18:13:40.180Z,51.95
2022-10-19T18:16:54.715Z,52.22
2022-10-19T18:20:03.684Z,52.35
2022-10-19T18:23:21.259Z,52.67
2022-10-19T18:26:32.672Z,52.95
2022-10-19T18:29:48.727Z,52.60
2022-10-19T18:32:57.964Z,53.04
2022-10-19T18:36:10.301Z,52.94
2022-10-19T18:39:20.783Z,53.18
2022-10-19T18:42:36.091Z,53.21
2022-10-19T18:45:45.761Z,53.69
2022-10-19T18:48:54.995Z,53.51
2022-10-19T18:52:03.772Z,53.28
2022-10-19T18:55:12.655Z,53.48
2022-10-19T18:58:43.719Z,53.32
2022-10-19T19:01:46.045Z,53.90
2022-10-19T19:05:00.823Z,54.04
2022-10-19T19:08:10.027Z,53.68
2022-10-19T19:11:21.791Z,53.94
2022-10-19T19:14:36.747Z,54.59
2022-10-19T19:17:45.984Z,54.13
2022-10-19T19:20:57.820Z,53.89
2022-10-19T19:24:16.511Z,54.10
2022-10-19T19:27:29.542Z,54.20
2022-10-19T19:30:43.816Z,54.06
2022-10-19T19:33:53.835Z,53.21
2022-10-19T19:37:04.086Z,53.25
2022-10-19T19:40:15.757Z,53.20
2022-10-19T19:43:25.751Z,52.92
2022-10-19T19:46:35.702Z,52.98
2022-10-19T19:49:45.308Z,52.92
2022-10-19T19:52:53.720Z,53.37
2022-10-19T19:56:04.120Z,52.60
2022-10-19T19:59:12.750Z,52.40
2022-10-19T20:02:28.797Z,52.29
2022-10-19T20:05:38.713Z,53.76
2022-10-19T20:08:54.868Z,52.20
2022-10-19T20:12:03.839Z,52.37
2022-10-19T20:15:22.784Z,51.96
2022-10-19T20:18:32.047Z,52.07
2022-10-19T20:21:40.832Z,51.69
2022-10-19T20:24:56.115Z,51.65
2022-10-19T20:28:07.876Z,52.53
2022-10-19T20:31:23.849Z,52.70
2022-10-19T20:34:29.308Z,52.31
2022-10-19T20:37:46.911Z,52.40
2022-10-19T20:40:50.959Z,52.16
2022-10-19T20:44:06.791Z,52.69
2022-10-19T20:47:16.860Z,51.80
2022-10-19T20:50:32.751Z,52.81
2022-10-19T20:53:34.869Z,51.91
2022-10-19T20:56:49.844Z,52.26
2022-10-19T20:59:58.796Z,52.21
2022-10-19T21:03:13.789Z,52.63
2022-10-19T21:06:22.815Z,52.54
2022-10-19T21:09:37.781Z,52.64
2022-10-19T21:12:39.580Z,52.99
2022-10-19T21:16:00.769Z,52.69
2022-10-19T21:19:19.917Z,53.32
2022-10-19T21:22:37.828Z,53.01
2022-10-19T21:25:45.814Z,53.45
2022-10-19T21:29:01.845Z,54.21
2022-10-19T21:32:15.259Z,54.06
2022-10-19T21:35:23.506Z,53.08
2022-10-19T21:38:31.845Z,53.43
2022-10-19T21:41:46.839Z,53.75
2022-10-19T21:45:01.429Z,53.87
2022-10-19T21:48:23.927Z,53.70
2022-10-19T21:51:45.924Z,53.85
2022-10-19T21:54:54.600Z,54.37
2022-10-19T21:58:02.845Z,54.25
2022-10-19T22:01:20.079Z,54.64
2022-10-19T22:04:28.807Z,54.16
2022-10-19T22:07:37.641Z,54.39
2022-10-19T22:10:46.824Z,54.51
2022-10-19T22:14:04.824Z,55.21
2022-10-19T22:17:07.071Z,55.03
2022-10-19T22:20:22.933Z,55.09
2022-10-19T22:23:44.919Z,55.30
2022-10-19T22:26:48.245Z,55.23
2022-10-19T22:30:02.847Z,55.29
2022-10-19T22:33:04.547Z,55.73
2022-10-19T22:36:18.827Z,55.75
2022-10-19T22:39:20.795Z,55.18
2022-10-19T22:42:55.843Z,55.14
2022-10-19T22:45:57.652Z,55.01
2022-10-19T22:49:12.886Z,55.08
2022-10-19T22:52:20.938Z,55.24
2022-10-19T22:55:29.543Z,54.84
2022-10-19T22:58:37.857Z,54.92
2022-10-19T23:01:46.719Z,55.06
2022-10-19T23:04:54.796Z,55.11
2022-10-19T23:08:03.515Z,54.98
2022-10-19T23:11:18.893Z,55.17
2022-10-19T23:14:20.678Z,55.47
2022-10-19T23:17:36.072Z,55.88
2022-10-19T23:20:55.806Z,56.28
2022-10-19T23:24:10.846Z,56.02
2022-10-19T23:27:25.908Z,55.87
2022-10-19T23:30:37.721Z,56.31
2022-10-19T23:33:53.858Z,55.79
2022-10-19T23:37:08.886Z,55.88
2022-10-19T23:40:26.103Z,56.11
2022-10-19T23:46:43.411Z,55.88
2022-10-19T23:49:57.952Z,55.42
2022-10-19T23:52:59.688Z,55.77
2022-10-19T23:56:21.026Z,55.99
2022-10-19T23:59:29.519Z,55.90
